Time;durP1;ratioP1;P1;durP2;ratioP2;P2;SDS_P1;SDS_P2;PMS_P1;PMS_P2;Temp;Humidity;BMP_temperature;BMP_pressure;BME280_temperature;BME280_humidity;BME280_pressure;Samples;Min_cycle;Max_cycle;Signal;HPM_P1;HPM_P2
2021/05/10 00:01:36;;;;;;;4.78;4.38;;;20.30;90.30;;;;;;5088443;28;20061;-39
2021/05/10 00:04:03;;;;;;;5.50;4.70;;;20.30;90.30;;;;;;5097619;28;20059;-39
2021/05/10 00:06:29;;;;;;;5.05;4.55;;;20.30;90.40;;;;;;5087840;28;20477;-39
2021/05/10 00:08:56;;;;;;;6.03;4.93;;;20.30;90.50;;;;;;5098364;28;20024;-39
2021/05/10 00:11:22;;;;;;;5.72;5.13;;;20.20;90.50;;;;;;5086383;28;20046;-40
2021/05/10 00:13:50;;;;;;;8.55;5.18;;;20.20;90.50;;;;;;5098795;28;20107;-40
2021/05/10 00:16:15;;;;;;;7.10;5.15;;;20.20;90.60;;;;;;5087103;28;20036;-40
2021/05/10 00:18:41;;;;;;;5.70;5.00;;;20.10;90.60;;;;;;5098257;28;20605;-40
2021/05/10 00:21:06;;;;;;;7.47;4.82;;;20.10;90.60;;;;;;5086776;28;20649;-40
2021/05/10 00:23:32;;;;;;;6.15;5.32;;;20.10;90.60;;;;;;5096642;28;20115;-40
2021/05/10 00:25:57;;;;;;;6.28;5.68;;;20.10;90.70;;;;;;5088583;28;20023;-39
2021/05/10 00:28:23;;;;;;;6.07;5.25;;;20.10;90.70;;;;;;5094027;28;20348;-39
2021/05/10 00:30:49;;;;;;;6.72;5.78;;;20.10;90.70;;;;;;5091079;28;20081;-39
2021/05/10 00:33:15;;;;;;;7.75;6.50;;;20.10;90.80;;;;;;5090555;28;20099;-39
2021/05/10 00:35:40;;;;;;;7.53;5.53;;;20.10;90.80;;;;;;5093918;28;20119;-41
2021/05/10 00:38:06;;;;;;;6.45;5.85;;;20.10;90.80;;;;;;5097598;28;20024;-40
2021/05/10 00:40:33;;;;;;;6.80;6.10;;;20.10;90.90;;;;;;5096472;28;20141;-39
2021/05/10 00:43:00;;;;;;;8.50;6.60;;;20.10;90.90;;;;;;5104422;28;20077;-40
2021/05/10 00:45:26;;;;;;;6.72;6.00;;;20.10;90.90;;;;;;5094401;28;20155;-40
2021/05/10 00:47:52;;;;;;;5.65;5.05;;;20.00;90.90;;;;;;5105482;28;20110;-39
2021/05/10 00:50:18;;;;;;;5.97;4.18;;;20.00;90.90;;;;;;5094892;28;20122;-39
2021/05/10 00:52:44;;;;;;;5.57;5.07;;;20.00;90.90;;;;;;5105608;28;20023;-39
2021/05/10 00:55:12;;;;;;;6.85;6.25;;;19.90;91.00;;;;;;5093518;28;20378;-40
2021/05/10 00:57:43;;;;;;;6.88;6.18;;;19.90;91.20;;;;;;5106022;28;20072;-40
2021/05/10 01:00:12;;;;;;;5.78;5.28;;;19.90;91.30;;;;;;5092609;28;20474;-40
2021/05/10 01:02:39;;;;;;;5.18;4.70;;;19.80;91.20;;;;;;5106524;28;20028;-39
2021/05/10 01:05:09;;;;;;;5.97;5.25;;;19.90;91.30;;;;;;5094080;28;20063;-40
2021/05/10 01:07:44;;;;;;;7.00;5.80;;;19.80;91.40;;;;;;5105677;28;20170;-40
2021/05/10 01:10:15;;;;;;;5.90;5.30;;;19.80;91.40;;;;;;5094961;28;20020;-39
2021/05/10 01:12:41;;;;;;;6.03;4.75;;;19.80;91.40;;;;;;5104963;28;20502;-41
2021/05/10 01:15:10;;;;;;;5.70;5.20;;;19.80;91.40;;;;;;5096370;28;20059;-40
2021/05/10 01:17:36;;;;;;;6.07;5.22;;;19.80;91.30;;;;;;5087421;28;20031;-39
2021/05/10 01:20:08;;;;;;;6.18;4.63;;;19.80;91.20;;;;;;5098403;28;20039;-39
2021/05/10 01:23:02;;;;;;;5.57;4.63;;;19.80;91.20;;;;;;5100935;28;20032;-39
2021/05/10 01:25:30;;;;;;;5.25;4.25;;;19.90;91.20;;;;;;5070864;28;20493;-39
2021/05/10 01:27:57;;;;;;;5.75;3.80;;;19.90;91.10;;;;;;5102584;28;20070;-40
2021/05/10 01:30:41;;;;;;;4.93;3.60;;;19.90;91.10;;;;;;5098881;28;20047;-39
2021/05/10 01:33:07;;;;;;;4.65;4.10;;;19.90;91.00;;;;;;5102816;28;20030;-36
2021/05/10 01:35:37;;;;;;;4.10;3.63;;;19.90;91.00;;;;;;5098389;28;20433;-39
2021/05/10 01:38:04;;;;;;;4.78;4.00;;;19.90;91.00;;;;;;5087771;28;20028;-39
2021/05/10 01:40:29;;;;;;;4.30;3.90;;;19.90;91.00;;;;;;5090777;28;20027;-39
2021/05/10 01:42:56;;;;;;;6.05;4.15;;;19.90;90.90;;;;;;5092696;28;20039;-39
2021/05/10 01:45:22;;;;;;;4.63;3.97;;;19.90;90.90;;;;;;5087928;28;20169;-38
2021/05/10 01:47:49;;;;;;;4.03;3.63;;;19.90;90.90;;;;;;5095914;28;20481;-37
2021/05/10 01:50:17;;;;;;;4.88;3.70;;;19.90;90.90;;;;;;5086378;28;20020;-39
2021/05/10 01:52:42;;;;;;;3.92;3.55;;;19.90;90.90;;;;;;5096835;28;20028;-39
2021/05/10 01:55:09;;;;;;;3.42;3.13;;;19.90;90.90;;;;;;5087176;28;20368;-37
2021/05/10 01:57:35;;;;;;;4.05;3.42;;;19.90;90.90;;;;;;5101078;28;20042;-39
2021/05/10 02:00:03;;;;;;;4.32;3.50;;;19.90;90.90;;;;;;5105656;28;20039;-40
2021/05/10 02:02:29;;;;;;;3.75;3.45;;;19.80;90.90;;;;;;5092462;28;20028;-40
2021/05/10 02:05:05;;;;;;;3.60;3.30;;;19.80;90.90;;;;;;5105960;28;20062;-39
2021/05/10 02:07:33;;;;;;;4.50;3.35;;;19.80;90.90;;;;;;5092455;28;20172;-39
2021/05/10 02:09:59;;;;;;;3.53;3.15;;;19.70;91.00;;;;;;5105314;28;20028;-39
2021/05/10 02:12:28;;;;;;;3.40;2.78;;;19.80;91.10;;;;;;5093115;28;20478;-39
2021/05/10 02:14:53;;;;;;;3.10;2.80;;;19.70;91.20;;;;;;5085697;28;20074;-39
2021/05/10 02:17:19;;;;;;;3.22;2.92;;;19.60;91.20;;;;;;5089520;28;20028;-39
2021/05/10 02:19:44;;;;;;;5.00;3.50;;;19.60;91.40;;;;;;5102512;28;20053;-39
2021/05/10 02:22:10;;;;;;;3.60;3.15;;;19.50;91.50;;;;;;5097986;28;20032;-38
2021/05/10 02:24:37;;;;;;;5.45;3.55;;;19.40;91.50;;;;;;5099974;28;20036;-40
2021/05/10 02:27:03;;;;;;;3.92;3.53;;;19.40;91.60;;;;;;5100265;28;20029;-39
2021/05/10 02:29:29;;;;;;;4.50;3.60;;;19.50;91.60;;;;;;5099695;28;20175;-39
2021/05/10 02:31:55;;;;;;;3.55;3.25;;;19.50;91.60;;;;;;5106080;28;20024;-39
2021/05/10 02:34:23;;;;;;;5.03;3.67;;;19.40;91.50;;;;;;5098770;28;20100;-38
2021/05/10 02:36:49;;;;;;;4.80;3.50;;;19.40;91.50;;;;;;5106084;28;20219;-39
2021/05/10 02:39:15;;;;;;;5.70;3.83;;;19.50;91.50;;;;;;5099235;28;20035;-39
2021/05/10 02:41:41;;;;;;;4.85;3.65;;;19.40;91.50;;;;;;5107243;28;20072;-40
2021/05/10 02:44:07;;;;;;;4.00;3.42;;;19.40;91.40;;;;;;5097966;28;20035;-39
2021/05/10 02:46:33;;;;;;;4.22;3.40;;;19.50;91.50;;;;;;5108332;28;20031;-39
2021/05/10 02:48:58;;;;;;;3.65;3.35;;;19.40;91.50;;;;;;5095701;28;20325;-38
2021/05/10 02:51:24;;;;;;;7.35;3.47;;;19.40;91.50;;;;;;5109430;28;20080;-40
2021/05/10 02:53:49;;;;;;;3.67;3.08;;;19.40;91.50;;;;;;5095482;28;20056;-38
2021/05/10 02:56:14;;;;;;;3.50;3.20;;;19.40;91.50;;;;;;5108730;28;20134;-39
2021/05/10 02:58:40;;;;;;;4.80;3.50;;;19.40;91.60;;;;;;5098708;28;20103;-40
2021/05/10 03:01:06;;;;;;;4.53;3.08;;;19.40;91.50;;;;;;5106109;28;20084;-40
2021/05/10 03:03:34;;;;;;;3.65;2.92;;;19.30;91.50;;;;;;5101556;28;20074;-38
2021/05/10 03:06:00;;;;;;;3.30;2.80;;;19.30;91.50;;;;;;5103039;28;20035;-39
2021/05/10 03:08:25;;;;;;;3.25;2.83;;;19.30;91.40;;;;;;5103643;28;20028;-39
2021/05/10 03:10:51;;;;;;;3.72;2.50;;;19.30;91.30;;;;;;5099814;28;20031;-39
2021/05/10 03:13:16;;;;;;;3.72;2.50;;;19.30;91.20;;;;;;5106642;28;20134;-39
2021/05/10 03:15:42;;;;;;;3.22;2.50;;;19.30;91.20;;;;;;5097513;28;20117;-39
2021/05/10 03:18:07;;;;;;;4.43;2.30;;;19.30;91.10;;;;;;5106996;28;20399;-40
2021/05/10 03:20:33;;;;;;;4.38;2.30;;;19.40;91.10;;;;;;5096791;28;20373;-38
2021/05/10 03:22:58;;;;;;;3.15;2.08;;;19.40;91.10;;;;;;5107149;28;20045;-39
2021/05/10 03:25:24;;;;;;;2.85;2.63;;;19.30;91.10;;;;;;5096045;28;20115;-39
2021/05/10 03:27:50;;;;;;;3.92;2.50;;;19.30;91.20;;;;;;5107284;28;20062;-40
2021/05/10 03:30:21;;;;;;;3.47;2.30;;;19.20;91.20;;;;;;5095733;28;20028;-40
2021/05/10 03:32:47;;;;;;;2.58;2.10;;;19.10;91.30;;;;;;5108257;28;20491;-40
2021/05/10 03:35:15;;;;;;;4.55;2.55;;;19.10;91.20;;;;;;5094359;28;20055;-41
2021/05/10 03:37:41;;;;;;;2.08;1.88;;;19.10;90.80;;;;;;5100175;28;20027;-41
2021/05/10 03:40:09;;;;;;;1.65;1.40;;;19.10;90.80;;;;;;5097508;28;20556;-40
2021/05/10 03:42:35;;;;;;;1.88;1.40;;;19.10;90.70;;;;;;5089297;28;20106;-44
2021/05/10 03:45:01;;;;;;;2.75;1.55;;;19.10;90.70;;;;;;5095120;28;20039;-40
2021/05/10 03:47:42;;;;;;;3.72;1.55;;;19.10;90.60;;;;;;5091930;28;20097;-40
2021/05/10 03:50:19;;;;;;;3.28;1.40;;;19.10;90.70;;;;;;5094390;28;20127;-40
2021/05/10 03:52:46;;;;;;;2.33;1.45;;;19.10;90.60;;;;;;5091323;28;20454;-42
2021/05/10 03:55:17;;;;;;;4.47;1.63;;;19.10;90.50;;;;;;5093186;28;20042;-41
2021/05/10 03:57:43;;;;;;;2.17;1.30;;;19.10;90.00;;;;;;5092036;28;20578;-40
2021/05/10 04:00:11;;;;;;;2.25;1.63;;;19.10;89.80;;;;;;5092440;28;20012;-41
2021/05/10 04:02:37;;;;;;;3.33;1.70;;;19.20;89.20;;;;;;5094243;28;20141;-40
2021/05/10 04:05:14;;;;;;;3.85;1.20;;;19.20;89.20;;;;;;5088957;28;20557;-39
2021/05/10 04:07:47;;;;;;;1.77;1.40;;;19.20;88.90;;;;;;5096453;28;20031;-40
2021/05/10 04:10:39;;;;;;;1.83;1.20;;;19.30;87.80;;;;;;5089084;28;20032;-39
2021/05/10 04:15:49;;;;;;;2.53;1.20;;;19.30;87.00;;;;;;5092611;28;20030;-38
2021/05/10 04:18:15;;;;;;;2.08;1.40;;;19.40;86.90;;;;;;5093155;28;20066;-40
2021/05/10 04:20:40;;;;;;;3.47;1.40;;;19.50;85.40;;;;;;5090383;28;20016;-38
2021/05/10 04:23:16;;;;;;;2.42;1.27;;;19.60;84.90;;;;;;5095228;28;20386;-39
2021/05/10 04:25:43;;;;;;;3.40;1.10;;;19.60;84.40;;;;;;5088899;28;20039;-41
2021/05/10 04:28:09;;;;;;;4.35;1.10;;;19.70;84.80;;;;;;5097317;28;20069;-41
2021/05/10 04:30:34;;;;;;;1.13;1.00;;;19.80;83.80;;;;;;5087892;28;20102;-40
2021/05/10 04:33:00;;;;;;;2.60;0.98;;;19.80;84.20;;;;;;5097652;28;20535;-40
2021/05/10 04:35:26;;;;;;;3.47;1.30;;;19.80;83.40;;;;;;5087418;28;20032;-40
2021/05/10 04:37:52;;;;;;;1.38;1.02;;;19.90;82.90;;;;;;5093618;28;20046;-38
2021/05/10 04:40:18;;;;;;;3.78;1.38;;;19.90;82.60;;;;;;5086330;28;20465;-40
2021/05/10 04:42:44;;;;;;;3.97;1.20;;;19.90;82.00;;;;;;5098970;28;20062;-39
2021/05/10 04:45:13;;;;;;;3.30;1.38;;;20.00;82.00;;;;;;5086400;28;20028;-37
2021/05/10 04:47:38;;;;;;;1.77;1.02;;;20.00;81.50;;;;;;5098825;28;20051;-40
2021/05/10 04:50:09;;;;;;;2.05;1.10;;;20.10;81.10;;;;;;5086174;28;20055;-38
2021/05/10 04:52:35;;;;;;;2.47;1.05;;;20.10;80.20;;;;;;5089523;28;20126;-40
2021/05/10 04:55:02;;;;;;;4.13;1.35;;;20.10;80.00;;;;;;5104514;28;20023;-41
2021/05/10 04:57:27;;;;;;;2.35;1.25;;;20.10;79.60;;;;;;5098004;28;20867;-38
2021/05/10 04:59:53;;;;;;;3.38;1.10;;;20.20;79.90;;;;;;5101320;28;20073;-40
2021/05/10 05:02:19;;;;;;;4.90;1.50;;;20.20;80.60;;;;;;5101145;28;20023;-39
2021/05/10 05:04:44;;;;;;;3.30;1.20;;;20.20;80.60;;;;;;5099146;28;20028;-40
2021/05/10 05:07:13;;;;;;;5.15;1.70;;;20.20;80.60;;;;;;5102958;28;20024;-40
2021/05/10 05:09:38;;;;;;;3.35;1.40;;;20.20;81.10;;;;;;5097280;28;20031;-39
2021/05/10 05:12:04;;;;;;;2.83;1.70;;;20.20;81.10;;;;;;5104506;28;20020;-39
2021/05/10 05:14:30;;;;;;;5.22;1.45;;;20.10;81.30;;;;;;5094461;28;20035;-40
2021/05/10 05:16:55;;;;;;;2.20;1.40;;;20.10;81.40;;;;;;5104868;28;20020;-37
2021/05/10 05:19:21;;;;;;;4.50;1.60;;;20.10;81.90;;;;;;5094367;28;20051;-39
2021/05/10 05:21:46;;;;;;;2.75;1.25;;;20.10;81.50;;;;;;5106024;28;20107;-41
2021/05/10 05:24:12;;;;;;;3.58;1.40;;;20.10;81.70;;;;;;5092880;28;20028;-41
2021/05/10 05:26:37;;;;;;;1.85;1.33;;;20.10;82.30;;;;;;5105994;28;20027;-41
2021/05/10 05:29:03;;;;;;;4.25;1.58;;;20.10;82.70;;;;;;5093098;28;20024;-41
2021/05/10 05:31:29;;;;;;;3.65;1.30;;;20.10;83.20;;;;;;5106617;28;20028;-42
2021/05/10 05:33:54;;;;;;;4.03;1.60;;;20.10;83.60;;;;;;5094870;28;20008;-40
2021/05/10 05:36:20;;;;;;;3.88;1.20;;;20.10;84.10;;;;;;5103895;28;20042;-40
2021/05/10 05:38:45;;;;;;;7.22;1.40;;;20.10;84.50;;;;;;5097365;28;20405;-39
2021/05/10 05:41:12;;;;;;;2.78;1.35;;;20.00;85.10;;;;;;5090259;28;20111;-39
2021/05/10 05:43:38;;;;;;;5.63;1.58;;;19.90;85.20;;;;;;5091251;28;20629;-40
2021/05/10 05:46:11;;;;;;;3.92;1.70;;;19.90;85.60;;;;;;5092967;28;20012;-40
2021/05/10 05:48:36;;;;;;;7.60;1.50;;;19.80;86.10;;;;;;5088209;28;20343;-40
2021/05/10 05:51:02;;;;;;;6.15;1.27;;;19.80;86.60;;;;;;5093901;28;20036;-39
2021/05/10 05:53:28;;;;;;;2.88;1.20;;;19.70;87.10;;;;;;5086948;28;20024;-38
2021/05/10 05:55:53;;;;;;;2.33;1.20;;;19.60;87.30;;;;;;5095935;28;20051;-39
2021/05/10 05:58:25;;;;;;;2.40;1.40;;;19.60;88.30;;;;;;5086880;28;20083;-40
2021/05/10 06:00:53;;;;;;;2.97;1.40;;;19.60;88.50;;;;;;5096511;28;20694;-40
2021/05/10 06:03:21;;;;;;;3.72;1.38;;;19.50;88.70;;;;;;5086351;28;20036;-38
2021/05/10 06:05:47;;;;;;;2.67;1.33;;;19.40;88.60;;;;;;5100978;28;20024;-39
2021/05/10 06:08:16;;;;;;;2.72;1.00;;;19.50;88.90;;;;;;5089484;28;20033;-38
2021/05/10 06:10:41;;;;;;;3.10;1.60;;;19.50;89.40;;;;;;5101555;28;20031;-40
2021/05/10 06:13:09;;;;;;;2.58;1.30;;;19.50;89.10;;;;;;5089694;28;20056;-40
2021/05/10 06:15:34;;;;;;;1.63;0.98;;;19.50;89.10;;;;;;5102090;28;20106;-39
2021/05/10 06:18:00;;;;;;;1.35;1.00;;;19.60;88.90;;;;;;5088860;28;20143;-40
2021/05/10 06:20:27;;;;;;;3.13;1.10;;;19.60;88.00;;;;;;5093542;28;20529;-39
2021/05/10 06:22:53;;;;;;;0.90;0.80;;;19.50;88.10;;;;;;5106493;28;20032;-40
2021/05/10 06:25:18;;;;;;;0.77;0.68;;;19.50;88.10;;;;;;5101513;28;20031;-40
2021/05/10 06:27:45;;;;;;;1.33;0.50;;;19.40;88.30;;;;;;5104330;28;20471;-40
2021/05/10 06:30:13;;;;;;;0.75;0.50;;;19.40;88.80;;;;;;5103953;28;20478;-41
2021/05/10 06:32:39;;;;;;;1.40;0.50;;;19.40;87.20;;;;;;5101850;28;20485;-38
2021/05/10 06:35:06;;;;;;;1.48;0.80;;;19.30;87.70;;;;;;5089207;28;20474;-39
2021/05/10 06:37:32;;;;;;;0.68;0.50;;;19.20;87.30;;;;;;5094436;28;20017;-41
2021/05/10 06:39:58;;;;;;;0.70;0.30;;;19.20;87.40;;;;;;5090449;28;20123;-36
2021/05/10 06:42:25;;;;;;;1.05;0.47;;;19.10;87.00;;;;;;5100727;28;20020;-42
2021/05/10 06:44:50;;;;;;;1.20;0.57;;;19.00;87.50;;;;;;5089398;28;20032;-40
2021/05/10 06:47:16;;;;;;;0.55;0.40;;;18.90;88.20;;;;;;5100716;28;20042;-38
2021/05/10 06:49:44;;;;;;;0.70;0.43;;;18.90;88.50;;;;;;5088479;28;20028;-40
2021/05/10 06:52:10;;;;;;;0.70;0.40;;;18.90;89.00;;;;;;5101063;28;20126;-39
2021/05/10 06:54:35;;;;;;;0.52;0.40;;;19.00;89.20;;;;;;5089406;28;20443;-40
2021/05/10 06:57:01;;;;;;;0.80;0.47;;;19.00;89.10;;;;;;5101272;28;20053;-40
2021/05/10 06:59:27;;;;;;;0.77;0.30;;;19.10;89.20;;;;;;5088657;28;20458;-41
2021/05/10 07:01:52;;;;;;;1.25;0.70;;;19.30;89.10;;;;;;5099245;28;20020;-41
2021/05/10 07:04:18;;;;;;;0.70;0.50;;;19.30;88.70;;;;;;5090402;28;20081;-41
2021/05/10 07:06:43;;;;;;;2.92;0.50;;;19.50;88.50;;;;;;5095239;28;20042;-40
2021/05/10 07:09:10;;;;;;;1.95;0.50;;;19.60;87.80;;;;;;5093613;28;20104;-40
2021/05/10 07:11:35;;;;;;;0.55;0.45;;;19.70;87.10;;;;;;5093921;28;20069;-40
2021/05/10 07:14:02;;;;;;;0.98;0.60;;;19.80;86.70;;;;;;5095098;28;20518;-40
2021/05/10 07:16:28;;;;;;;0.45;0.40;;;19.70;86.90;;;;;;5090179;28;20064;-40
2021/05/10 07:18:56;;;;;;;0.95;0.50;;;19.80;87.10;;;;;;5097982;28;20027;-40
2021/05/10 07:21:23;;;;;;;0.50;0.50;;;19.80;87.10;;;;;;5090009;28;20092;-39
2021/05/10 07:23:49;;;;;;;1.00;0.50;;;19.80;86.80;;;;;;5099817;28;20067;-41
2021/05/10 07:26:14;;;;;;;0.75;0.50;;;19.70;87.00;;;;;;5089349;28;20056;-40
2021/05/10 07:28:40;;;;;;;1.33;0.80;;;19.70;87.30;;;;;;5099621;28;20088;-40
2021/05/10 07:31:06;;;;;;;3.75;0.90;;;19.70;87.10;;;;;;5088308;28;20137;-40
2021/05/10 07:33:31;;;;;;;2.28;1.13;;;19.60;86.60;;;;;;5100707;28;20383;-38
2021/05/10 07:35:57;;;;;;;1.92;1.00;;;19.60;86.80;;;;;;5088223;28;20013;-39
2021/05/10 07:38:23;;;;;;;1.70;0.88;;;19.60;86.50;;;;;;5089524;28;20546;-42
2021/05/10 07:40:48;;;;;;;1.27;0.90;;;19.70;86.30;;;;;;5087458;28;20069;-39
2021/05/10 07:43:14;;;;;;;2.08;1.00;;;19.80;86.10;;;;;;5095361;28;20020;-39
2021/05/10 07:45:39;;;;;;;1.75;1.00;;;19.80;86.10;;;;;;5105678;28;20151;-39
2021/05/10 07:48:05;;;;;;;3.25;1.17;;;19.80;86.40;;;;;;5100022;28;20531;-40
2021/05/10 07:50:31;;;;;;;2.40;1.83;;;19.80;86.40;;;;;;5102927;28;20696;-40
2021/05/10 07:52:56;;;;;;;1.23;1.10;;;19.90;86.30;;;;;;5102597;28;20031;-41
2021/05/10 07:55:23;;;;;;;1.67;0.90;;;19.90;86.70;;;;;;5100578;28;20074;-40
2021/05/10 07:57:49;;;;;;;0.95;0.90;;;19.80;86.70;;;;;;5104713;28;20070;-40
2021/05/10 08:00:19;;;;;;;1.10;1.00;;;19.80;86.50;;;;;;5097804;28;20054;-40
2021/05/10 08:02:46;;;;;;;4.03;1.25;;;19.70;86.70;;;;;;5105856;28;20031;-40
2021/05/10 08:05:13;;;;;;;2.38;1.13;;;19.60;87.40;;;;;;5096110;28;20427;-41
2021/05/10 08:07:39;;;;;;;2.80;1.00;;;19.40;87.70;;;;;;5105912;28;20383;-40
2021/05/10 08:10:06;;;;;;;2.78;1.25;;;19.40;88.40;;;;;;5096068;28;20149;-41
2021/05/10 08:12:32;;;;;;;2.25;1.30;;;19.30;88.20;;;;;;5108125;28;20020;-40
2021/05/10 08:14:58;;;;;;;3.67;1.20;;;19.30;88.50;;;;;;5099560;28;20043;-39
2021/05/10 08:17:24;;;;;;;2.58;1.10;;;19.20;89.00;;;;;;5087182;28;20103;-40
2021/05/10 08:19:50;;;;;;;1.75;1.08;;;19.10;89.10;;;;;;5100442;28;20118;-39
2021/05/10 08:22:15;;;;;;;1.33;0.85;;;19.10;89.50;;;;;;5086844;28;20730;-40
2021/05/10 08:24:41;;;;;;;1.98;1.02;;;19.00;90.00;;;;;;5097498;28;20036;-41
2021/05/10 08:27:07;;;;;;;2.03;1.08;;;19.10;90.00;;;;;;5089142;28;20540;-41
2021/05/10 08:29:33;;;;;;;2.15;1.00;;;19.30;89.90;;;;;;5094944;28;20036;-40
2021/05/10 08:31:59;;;;;;;1.88;0.85;;;19.40;89.70;;;;;;5091362;28;20435;-40
2021/05/10 08:34:25;;;;;;;1.30;0.98;;;19.40;89.40;;;;;;5092550;28;20012;-40
2021/05/10 08:36:51;;;;;;;1.60;1.10;;;19.50;89.40;;;;;;5092752;28;20328;-41
2021/05/10 08:39:17;;;;;;;2.78;1.00;;;19.40;90.30;;;;;;5101316;28;20027;-41
2021/05/10 08:41:42;;;;;;;1.27;1.10;;;19.20;91.00;;;;;;5097429;28;20096;-41
2021/05/10 08:44:10;;;;;;;1.20;1.10;;;18.90;92.00;;;;;;5104925;28;20114;-42
2021/05/10 08:46:38;;;;;;;1.23;1.10;;;18.70;92.20;;;;;;5095684;28;20456;-40
2021/05/10 08:49:04;;;;;;;1.45;0.90;;;18.60;92.60;;;;;;5105537;28;20015;-37
2021/05/10 08:51:32;;;;;;;2.22;1.35;;;18.60;92.40;;;;;;5094878;28;20468;-39
2021/05/10 08:53:57;;;;;;;1.13;1.00;;;18.60;92.30;;;;;;5106657;28;20124;-39
2021/05/10 08:56:24;;;;;;;1.73;1.05;;;18.70;92.20;;;;;;5100993;28;20075;-39
2021/05/10 08:58:50;;;;;;;1.58;1.02;;;18.80;91.80;;;;;;5085522;28;20059;-40
2021/05/10 09:01:16;;;;;;;1.77;1.27;;;18.90;91.80;;;;;;5099236;28;20478;-38
2021/05/10 09:03:45;;;;;;;1.40;1.00;;;18.90;91.70;;;;;;5085395;28;20043;-40
2021/05/10 09:06:15;;;;;;;2.63;1.67;;;19.00;91.50;;;;;;5087370;28;20517;-39
2021/05/10 09:08:46;;;;;;;1.42;1.10;;;19.00;91.50;;;;;;5088933;28;20032;-39
2021/05/10 09:11:12;;;;;;;2.65;1.48;;;19.10;91.40;;;;;;5090760;28;20332;-40
2021/05/10 09:13:43;;;;;;;1.75;1.25;;;19.10;91.40;;;;;;5104716;28;20020;-39
2021/05/10 09:16:11;;;;;;;1.70;1.30;;;19.20;91.20;;;;;;5098038;28;20016;-40
2021/05/10 09:18:38;;;;;;;1.40;1.30;;;19.20;91.10;;;;;;5103627;28;20027;-40
2021/05/10 09:21:18;;;;;;;1.63;1.20;;;19.30;90.90;;;;;;5104681;28;20374;-40
2021/05/10 09:23:44;;;;;;;1.92;1.20;;;19.30;90.80;;;;;;5105952;28;20137;-40
2021/05/10 09:26:13;;;;;;;2.42;1.25;;;19.30;90.80;;;;;;5100149;28;20097;-40
2021/05/10 09:28:44;;;;;;;1.83;1.20;;;19.30;90.50;;;;;;5099540;28;20012;-39
2021/05/10 09:31:12;;;;;;;1.35;1.13;;;19.30;90.40;;;;;;5090862;28;20524;-40
2021/05/10 09:33:46;;;;;;;1.13;1.02;;;19.30;90.30;;;;;;5098923;28;20020;-37
2021/05/10 09:36:31;;;;;;;1.15;1.10;;;19.30;90.40;;;;;;5102925;28;20027;-40
2021/05/10 09:38:57;;;;;;;1.35;1.05;;;19.30;90.40;;;;;;5102814;28;20032;-40
2021/05/10 09:41:23;;;;;;;1.52;1.20;;;19.40;90.40;;;;;;5105902;28;20028;-40
2021/05/10 09:44:05;;;;;;;1.10;1.00;;;19.40;90.10;;;;;;5099855;28;20348;-41
2021/05/10 09:46:43;;;;;;;1.70;0.90;;;19.40;90.00;;;;;;5093531;28;20751;-42
2021/05/10 09:49:09;;;;;;;2.35;1.80;;;19.40;90.10;;;;;;5098373;28;20035;-39
2021/05/10 09:51:36;;;;;;;3.17;2.28;;;19.40;89.40;;;;;;5092146;28;20051;-36
2021/05/10 09:54:13;;;;;;;1.98;1.63;;;19.30;89.70;;;;;;5099282;28;20040;-40
2021/05/10 09:56:40;;;;;;;2.33;1.60;;;19.30;89.70;;;;;;5091261;28;20129;-40
2021/05/10 09:59:14;;;;;;;2.72;1.50;;;19.30;89.80;;;;;;5110209;28;20027;-40
2021/05/10 10:01:44;;;;;;;1.55;1.30;;;19.20;90.00;;;;;;5106753;28;20024;-40
2021/05/10 10:04:14;;;;;;;2.00;1.80;;;19.20;90.10;;;;;;5101241;28;20096;-43
2021/05/10 10:06:39;;;;;;;1.50;1.40;;;19.20;90.10;;;;;;5102612;28;20024;-41
2021/05/10 10:09:06;;;;;;;1.75;1.38;;;19.10;90.10;;;;;;5102992;28;20521;-42
2021/05/10 10:11:32;;;;;;;1.50;1.40;;;19.10;90.20;;;;;;5089866;28;20024;-41
2021/05/10 10:13:58;;;;;;;1.77;1.33;;;18.90;90.30;;;;;;5105868;28;20061;-40
2021/05/10 10:16:26;;;;;;;1.30;1.20;;;18.80;90.40;;;;;;5108938;28;20035;-41
2021/05/10 10:18:53;;;;;;;2.17;1.70;;;18.60;90.70;;;;;;5109371;28;20549;-41
2021/05/10 10:21:20;;;;;;;2.65;1.88;;;18.50;90.80;;;;;;5110129;28;20039;-39
2021/05/10 10:23:53;;;;;;;2.55;2.20;;;18.30;91.20;;;;;;5105010;28;20030;-42
2021/05/10 10:26:22;;;;;;;2.60;2.40;;;18.10;91.80;;;;;;5090004;28;20023;-40
2021/05/10 10:28:49;;;;;;;2.97;2.40;;;18.00;92.00;;;;;;5099131;28;20654;-40
2021/05/10 10:31:28;;;;;;;4.07;2.30;;;17.80;92.30;;;;;;5108178;28;20106;-39
2021/05/10 10:34:04;;;;;;;2.78;2.58;;;17.70;92.70;;;;;;5104118;28;20149;-37
2021/05/10 10:36:32;;;;;;;3.80;2.67;;;17.60;93.40;;;;;;5088874;28;20028;-39
2021/05/10 10:39:20;;;;;;;3.15;2.08;;;17.40;93.50;;;;;;5097949;28;20067;-44
2021/05/10 10:41:59;;;;;;;2.83;2.63;;;17.30;93.70;;;;;;5108337;28;20115;-40
2021/05/10 10:44:43;;;;;;;4.40;3.30;;;17.40;94.00;;;;;;5096663;28;20418;-38
2021/05/10 10:47:11;;;;;;;3.90;3.42;;;17.50;94.30;;;;;;5088733;28;20020;-38
2021/05/10 10:49:41;;;;;;;2.70;2.50;;;17.60;94.50;;;;;;5092461;28;20046;-41
2021/05/10 10:52:30;;;;;;;2.78;2.58;;;17.70;94.30;;;;;;5108642;28;20038;-39
2021/05/10 10:55:17;;;;;;;2.92;2.60;;;17.70;94.30;;;;;;5096457;28;20561;-41
2021/05/10 10:57:43;;;;;;;3.17;2.90;;;17.80;94.40;;;;;;5097998;28;20675;-41
2021/05/10 11:00:14;;;;;;;3.00;2.70;;;17.90;94.30;;;;;;5096452;28;20042;-39
2021/05/10 11:02:48;;;;;;;2.70;2.35;;;18.00;94.70;;;;;;5109974;28;20052;-37
2021/05/10 11:05:26;;;;;;;3.03;2.72;;;18.00;94.60;;;;;;5096609;28;20028;-38
2021/05/10 11:08:08;;;;;;;3.20;2.45;;;18.00;94.60;;;;;;5088760;28;20032;-41
2021/05/10 11:10:44;;;;;;;3.57;2.20;;;18.00;94.70;;;;;;5093940;28;20020;-41
2021/05/10 11:13:30;;;;;;;2.53;2.30;;;18.10;94.60;;;;;;5108716;28;20024;-38
2021/05/10 11:15:56;;;;;;;2.83;2.55;;;18.20;94.80;;;;;;5095240;28;20496;-41
2021/05/10 11:18:36;;;;;;;3.28;2.40;;;18.30;94.60;;;;;;5108751;28;20024;-38
2021/05/10 11:21:07;;;;;;;3.78;3.35;;;18.30;94.80;;;;;;5094885;28;20116;-39
2021/05/10 11:23:35;;;;;;;3.35;3.08;;;18.10;94.80;;;;;;5109322;28;20027;-39
2021/05/10 11:26:06;;;;;;;3.50;3.20;;;17.90;95.00;;;;;;5094698;28;20040;-40
2021/05/10 11:28:32;;;;;;;4.32;3.42;;;17.60;95.30;;;;;;5108883;28;20508;-39
2021/05/10 11:30:59;;;;;;;6.72;4.47;;;17.50;95.60;;;;;;5095917;28;20120;-40
2021/05/10 11:33:53;;;;;;;3.92;3.50;;;17.30;96.00;;;;;;5107079;28;20034;-38
2021/05/10 11:36:23;;;;;;;4.00;3.70;;;17.10;96.30;;;;;;5095525;28;20031;-39
2021/05/10 11:39:12;;;;;;;3.15;2.72;;;16.90;96.60;;;;;;5108124;28;20190;-41
2021/05/10 11:41:41;;;;;;;3.13;2.85;;;16.80;97.00;;;;;;5087476;28;20071;-40
2021/05/10 11:44:08;;;;;;;2.80;2.60;;;16.60;97.00;;;;;;5108341;28;20088;-39
2021/05/10 11:46:44;;;;;;;2.78;2.58;;;16.50;97.10;;;;;;5107009;28;20034;-38
2021/05/10 11:49:23;;;;;;;3.83;2.85;;;16.40;97.70;;;;;;5102799;28;20096;-41
2021/05/10 11:51:48;;;;;;;2.65;2.45;;;16.40;97.50;;;;;;5103805;28;20027;-40
2021/05/10 11:54:14;;;;;;;2.40;1.90;;;16.60;97.40;;;;;;5087578;28;20020;-40
2021/05/10 11:56:46;;;;;;;2.05;1.90;;;16.80;97.10;;;;;;5097497;28;20104;-39
2021/05/10 11:59:35;;;;;;;2.33;2.10;;;17.10;97.10;;;;;;5089051;28;20536;-39
2021/05/10 12:02:13;;;;;;;2.70;2.50;;;17.40;96.40;;;;;;5098150;28;20486;-42
2021/05/10 12:04:43;;;;;;;2.55;2.35;;;17.60;96.20;;;;;;5088072;28;20047;-39
2021/05/10 12:07:09;;;;;;;4.10;2.47;;;17.80;96.00;;;;;;5091824;28;20031;-41
2021/05/10 12:09:57;;;;;;;2.15;1.80;;;18.00;95.70;;;;;;5105291;28;20032;-39
2021/05/10 12:12:30;;;;;;;2.40;2.20;;;18.10;95.50;;;;;;5096414;28;20491;-40
2021/05/10 12:15:02;;;;;;;;;;;18.20;94.90;;;;;;5087268;28;20053;-41
2021/05/10 12:17:28;;;;;;;2.40;2.20;;;18.10;94.90;;;;;;5091830;28;19907;-40
2021/05/10 12:20:12;;;;;;;2.38;2.20;;;18.10;94.70;;;;;;5106626;28;20019;-40
2021/05/10 12:22:48;;;;;;;2.40;1.83;;;17.90;94.60;;;;;;5096496;28;20058;-39
2021/05/10 12:25:37;;;;;;;2.58;2.38;;;18.00;95.00;;;;;;5107654;28;20070;-40
2021/05/10 12:28:11;;;;;;;1.75;1.63;;;18.20;95.00;;;;;;5101977;28;20028;-40
2021/05/10 12:30:47;;;;;;;3.60;2.25;;;18.40;94.90;;;;;;5106944;28;20304;-39
2021/05/10 12:33:19;;;;;;;2.53;2.33;;;18.50;94.70;;;;;;5105554;28;20089;-43
2021/05/10 12:35:53;;;;;;;2.58;2.38;;;18.50;94.50;;;;;;5104390;28;20104;-41
2021/05/10 12:38:36;;;;;;;2.97;2.55;;;18.40;94.50;;;;;;5102976;28;20122;-41
2021/05/10 12:41:03;;;;;;;2.30;2.10;;;18.30;94.60;;;;;;5105957;28;20042;-38
2021/05/10 12:43:31;;;;;;;2.40;2.20;;;18.40;94.70;;;;;;5102324;28;20028;-39
2021/05/10 12:45:56;;;;;;;3.15;2.92;;;18.50;94.70;;;;;;5098343;28;20484;-39
2021/05/10 12:48:23;;;;;;;3.38;3.08;;;18.60;94.50;;;;;;5102727;28;20016;-39
2021/05/10 12:50:50;;;;;;;2.60;2.40;;;18.80;94.20;;;;;;5089402;28;20119;-41
2021/05/10 12:53:35;;;;;;;2.45;2.25;;;19.00;94.10;;;;;;5096910;28;20494;-40
2021/05/10 12:56:07;;;;;;;2.65;2.45;;;19.20;93.90;;;;;;5088624;28;20417;-40
2021/05/10 12:58:52;;;;;;;2.50;2.30;;;19.40;93.70;;;;;;5095211;28;20027;-40